createdAt,value
2018-11-25T00:00:23.420Z,6.20
2018-11-25T00:02:52.374Z,6.10
2018-11-25T00:05:21.703Z,6.20
2018-11-25T00:07:51.001Z,6.20
2018-11-25T00:10:19.724Z,6.20
2018-11-25T00:12:48.833Z,6.20
2018-11-25T00:15:17.379Z,6.20
2018-11-25T00:17:46.140Z,6.10
2018-11-25T00:20:14.711Z,6.10
2018-11-25T00:22:43.551Z,6.10
2018-11-25T00:25:15.320Z,6.10
2018-11-25T00:27:43.826Z,6.20
2018-11-25T00:30:13.449Z,6.20
2018-11-25T00:32:42.192Z,6.20
2018-11-25T00:35:14.520Z,6.30
2018-11-25T00:37:48.096Z,6.30
2018-11-25T00:40:12.598Z,6.40
2018-11-25T00:42:41.139Z,6.40
2018-11-25T00:45:12.269Z,6.40
2018-11-25T00:47:41.080Z,6.40
2018-11-25T00:50:10.963Z,6.40
2018-11-25T00:52:39.477Z,6.50
2018-11-25T00:55:11.839Z,6.50
2018-11-25T00:57:40.512Z,6.40
2018-11-25T01:00:17.378Z,6.40
2018-11-25T01:02:47.698Z,6.40
2018-11-25T01:05:16.211Z,6.50
2018-11-25T01:07:44.793Z,6.50
2018-11-25T01:10:15.154Z,6.50
2018-11-25T01:12:44.053Z,6.50
2018-11-25T01:15:13.731Z,6.50
2018-11-25T01:17:44.108Z,6.50
2018-11-25T01:20:17.680Z,6.40
2018-11-25T01:22:47.936Z,6.40
2018-11-25T01:25:17.845Z,6.40
2018-11-25T01:27:48.330Z,6.40
2018-11-25T01:30:17.666Z,6.40
2018-11-25T01:32:46.798Z,6.30
2018-11-25T01:35:15.309Z,6.30
2018-11-25T01:37:43.933Z,6.30
2018-11-25T01:40:16.434Z,6.30
2018-11-25T01:42:45.138Z,6.30
2018-11-25T01:45:16.330Z,6.20
2018-11-25T01:47:45.295Z,6.30
2018-11-25T01:50:14.877Z,6.30
2018-11-25T01:52:43.356Z,6.30
2018-11-25T01:55:13.178Z,6.30
2018-11-25T01:57:41.944Z,6.30
2018-11-25T02:00:19.245Z,6.30
2018-11-25T02:02:47.927Z,6.30
2018-11-25T02:05:16.566Z,6.30
2018-11-25T02:07:45.155Z,6.30
2018-11-25T02:10:17.554Z,6.30
2018-11-25T02:12:46.140Z,6.30
2018-11-25T02:15:15.677Z,6.30
2018-11-25T02:17:44.334Z,6.20
2018-11-25T02:20:19.370Z,6.30
2018-11-25T02:22:48.632Z,6.30
2018-11-25T02:25:17.636Z,6.20
2018-11-25T02:27:46.139Z,6.20
2018-11-25T02:30:15.588Z,6.10
2018-11-25T02:32:44.285Z,6.10
2018-11-25T02:35:13.561Z,6.10
2018-11-25T02:37:42.382Z,6.10
2018-11-25T02:40:14.149Z,6.10
2018-11-25T02:42:42.710Z,6.10
2018-11-25T02:45:12.443Z,6.10
2018-11-25T02:47:40.911Z,6.00
2018-11-25T02:50:29.346Z,6.00
2018-11-25T02:53:02.002Z,6.00
2018-11-25T02:55:31.847Z,6.00
2018-11-25T02:58:00.935Z,6.00
2018-11-25T03:00:28.999Z,6.00
2018-11-25T03:02:57.541Z,5.90
2018-11-25T03:05:26.118Z,6.00
2018-11-25T03:07:54.615Z,6.00
2018-11-25T03:10:23.152Z,6.00
2018-11-25T03:12:51.764Z,6.00
2018-11-25T03:15:20.310Z,6.00
2018-11-25T03:17:49.444Z,6.00
2018-11-25T03:20:18.318Z,6.00
2018-11-25T03:22:46.812Z,6.10
2018-11-25T03:25:21.232Z,6.00
2018-11-25T03:27:49.857Z,6.00
2018-11-25T03:30:19.528Z,6.00
2018-11-25T03:32:49.206Z,6.00
2018-11-25T03:35:17.683Z,6.00
2018-11-25T03:37:46.256Z,6.00
2018-11-25T03:40:15.696Z,6.00
2018-11-25T03:42:44.210Z,5.90
2018-11-25T03:45:14.900Z,5.90
2018-11-25T03:47:43.435Z,5.90
2018-11-25T03:50:12.811Z,5.90
2018-11-25T03:52:41.287Z,5.90
2018-11-25T03:55:11.929Z,5.90
2018-11-25T03:57:41.721Z,5.90
2018-11-25T04:00:16.557Z,5.80
2018-11-25T04:02:45.886Z,5.90
2018-11-25T04:05:16.281Z,5.90
2018-11-25T04:07:44.801Z,5.80
2018-11-25T04:10:14.406Z,5.80
2018-11-25T04:12:42.953Z,5.80
2018-11-25T04:15:13.567Z,5.80
2018-11-25T04:17:42.206Z,5.80
2018-11-25T04:20:11.988Z,5.80
2018-11-25T04:22:42.452Z,5.80
2018-11-25T04:25:11.911Z,5.80
2018-11-25T04:27:40.388Z,5.80
2018-11-25T04:30:15.859Z,5.80
2018-11-25T04:32:45.110Z,5.80
2018-11-25T04:35:14.026Z,5.80
2018-11-25T04:37:42.644Z,5.80
2018-11-25T04:40:16.377Z,5.80
2018-11-25T04:42:44.893Z,5.80
2018-11-25T04:45:15.306Z,5.80
2018-11-25T04:47:44.445Z,5.80
2018-11-25T04:50:14.374Z,5.80
2018-11-25T04:52:42.896Z,5.80
2018-11-25T04:55:11.376Z,5.80
2018-11-25T04:57:40.028Z,5.80
2018-11-25T05:00:12.375Z,5.80
2018-11-25T05:02:41.424Z,5.80
2018-11-25T05:05:12.270Z,5.70
2018-11-25T05:07:41.808Z,5.80
2018-11-25T05:10:14.458Z,5.80
2018-11-25T05:12:42.926Z,5.80
2018-11-25T05:15:21.273Z,5.80
2018-11-25T05:17:50.022Z,5.80
2018-11-25T05:20:19.358Z,5.90
2018-11-25T05:22:47.835Z,5.90
2018-11-25T05:25:18.135Z,5.90
2018-11-25T05:27:47.782Z,6.00
2018-11-25T05:30:17.079Z,6.00
2018-11-25T05:32:45.609Z,6.00
2018-11-25T05:35:15.278Z,6.00
2018-11-25T05:37:43.814Z,6.00
2018-11-25T05:40:13.366Z,6.00
2018-11-25T05:42:41.891Z,6.10
2018-11-25T05:45:13.553Z,6.10
2018-11-25T05:47:42.061Z,6.10
2018-11-25T05:50:12.424Z,6.20
2018-11-25T05:52:40.877Z,6.20
2018-11-25T05:55:10.597Z,6.20
2018-11-25T05:57:41.429Z,6.20
2018-11-25T06:00:17.229Z,6.20
2018-11-25T06:02:46.032Z,6.20
2018-11-25T06:05:16.597Z,6.20
2018-11-25T06:07:47.196Z,6.20
2018-11-25T06:10:15.814Z,6.30
2018-11-25T06:12:44.298Z,6.30
2018-11-25T06:15:17.640Z,6.20
2018-11-25T06:17:46.244Z,6.20
2018-11-25T06:20:18.057Z,6.20
2018-11-25T06:22:47.303Z,6.20
2018-11-25T06:25:19.020Z,6.10
2018-11-25T06:27:47.568Z,6.10
2018-11-25T06:30:17.134Z,6.10
2018-11-25T06:32:45.803Z,6.00
2018-11-25T06:35:15.448Z,6.00
2018-11-25T06:37:43.947Z,5.90
2018-11-25T06:40:14.558Z,5.90
2018-11-25T06:42:43.048Z,5.80
2018-11-25T06:45:13.302Z,5.80
2018-11-25T06:47:41.874Z,5.80
2018-11-25T06:50:12.453Z,5.80
2018-11-25T06:52:40.322Z,5.80
2018-11-25T06:55:10.150Z,5.80
2018-11-25T06:57:38.635Z,5.80
2018-11-25T07:00:20.001Z,5.80
2018-11-25T07:02:48.478Z,5.80
2018-11-25T07:05:16.965Z,5.70
2018-11-25T07:07:45.443Z,5.70
2018-11-25T07:10:16.050Z,5.70
2018-11-25T07:12:44.605Z,5.60
2018-11-25T07:15:16.496Z,5.60
2018-11-25T07:17:45.032Z,5.60
2018-11-25T07:20:15.673Z,5.70
2018-11-25T07:22:44.249Z,5.70
2018-11-25T07:25:16.765Z,5.80
2018-11-25T07:27:47.009Z,5.80
2018-11-25T07:30:19.855Z,5.80
2018-11-25T07:32:48.350Z,5.80
2018-11-25T07:35:16.839Z,5.80
2018-11-25T07:37:45.379Z,5.70
2018-11-25T07:40:15.760Z,5.80
2018-11-25T07:42:45.100Z,5.80
2018-11-25T07:45:14.878Z,5.90
2018-11-25T07:47:43.426Z,5.90
2018-11-25T07:50:12.959Z,5.90
2018-11-25T07:52:42.362Z,5.90
2018-11-25T07:55:12.871Z,5.90
2018-11-25T07:57:41.693Z,5.90
2018-11-25T08:00:18.874Z,5.90
2018-11-25T08:02:47.392Z,5.90
2018-11-25T08:05:19.000Z,5.90
2018-11-25T08:07:47.568Z,5.80
2018-11-25T08:10:16.494Z,5.90
2018-11-25T08:12:45.754Z,5.80
2018-11-25T08:15:16.092Z,5.80
2018-11-25T08:17:44.638Z,5.80
2018-11-25T08:20:14.112Z,5.80
2018-11-25T08:22:42.620Z,5.80
2018-11-25T08:25:13.419Z,5.90
2018-11-25T08:27:41.970Z,5.90
2018-11-25T08:30:15.656Z,5.90
2018-11-25T08:32:44.160Z,5.90
2018-11-25T08:35:13.684Z,5.90
2018-11-25T08:37:42.163Z,5.80
2018-11-25T08:40:12.983Z,5.90
2018-11-25T08:42:41.561Z,5.90
2018-11-25T08:45:11.139Z,5.90
2018-11-25T08:47:40.194Z,5.90
2018-11-25T08:50:13.284Z,5.90
2018-11-25T08:52:42.458Z,5.90
2018-11-25T08:55:13.196Z,5.90
2018-11-25T08:57:41.828Z,5.90
2018-11-25T09:00:16.411Z,5.90
2018-11-25T09:02:45.185Z,5.90
2018-11-25T09:05:14.719Z,5.90
2018-11-25T09:07:43.540Z,5.80
2018-11-25T09:10:13.082Z,5.80
2018-11-25T09:12:41.736Z,5.90
2018-11-25T09:15:12.908Z,5.90
2018-11-25T09:17:41.638Z,5.90
2018-11-25T09:20:11.950Z,5.90
2018-11-25T09:22:40.814Z,5.90
2018-11-25T09:25:17.555Z,6.00
2018-11-25T09:27:46.228Z,6.00
2018-11-25T09:30:19.204Z,6.10
2018-11-25T09:32:47.747Z,6.00
2018-11-25T09:35:16.538Z,6.00
2018-11-25T09:37:45.272Z,6.00
2018-11-25T09:40:16.514Z,6.00
2018-11-25T09:42:45.132Z,6.00
2018-11-25T09:45:14.914Z,6.00
2018-11-25T09:47:43.820Z,6.00
2018-11-25T09:50:15.452Z,5.90
2018-11-25T09:52:43.938Z,5.90
2018-11-25T09:55:14.433Z,5.90
2018-11-25T09:57:44.729Z,5.90
2018-11-25T10:00:31.909Z,5.80
2018-11-25T10:03:02.685Z,5.80
2018-11-25T10:05:31.985Z,5.80
2018-11-25T10:08:02.004Z,5.80
2018-11-25T10:10:32.003Z,5.80
2018-11-25T10:13:00.493Z,5.80
2018-11-25T10:15:29.569Z,5.70
2018-11-25T10:17:59.682Z,5.80
2018-11-25T10:20:29.051Z,5.80
2018-11-25T10:22:57.703Z,5.80
2018-11-25T10:25:28.383Z,5.80
2018-11-25T10:27:58.013Z,5.90
2018-11-25T10:30:28.716Z,5.90
2018-11-25T10:32:58.793Z,6.00
2018-11-25T10:35:27.349Z,5.90
2018-11-25T10:37:56.079Z,5.90
2018-11-25T10:40:33.524Z,5.90
2018-11-25T10:43:02.053Z,5.80
2018-11-25T10:45:32.534Z,5.80
2018-11-25T10:48:01.046Z,5.80
2018-11-25T10:50:29.572Z,5.80
2018-11-25T10:52:59.022Z,5.80
2018-11-25T10:55:27.647Z,5.90
2018-11-25T10:57:56.224Z,5.90
2018-11-25T11:00:32.079Z,5.90
2018-11-25T11:03:06.488Z,5.90
2018-11-25T11:05:40.232Z,5.90
2018-11-25T11:08:09.683Z,5.80
2018-11-25T11:10:38.212Z,5.80
2018-11-25T11:13:07.777Z,5.80
2018-11-25T11:15:36.667Z,5.70
2018-11-25T11:18:05.431Z,5.70
2018-11-25T11:20:34.114Z,5.80
2018-11-25T11:23:02.669Z,5.80
2018-11-25T11:25:31.271Z,5.80
2018-11-25T11:27:59.836Z,5.80
2018-11-25T11:30:28.353Z,5.80
2018-11-25T11:32:58.433Z,5.80
2018-11-25T11:35:27.395Z,5.80
2018-11-25T11:37:56.153Z,5.80
2018-11-25T11:40:25.684Z,5.80
2018-11-25T12:17:32.870Z,5.80
2018-11-25T12:20:01.350Z,5.80
2018-11-25T12:22:29.947Z,5.80
2018-11-25T12:24:58.463Z,5.80
2018-11-25T12:27:27.668Z,5.80
2018-11-25T12:29:56.143Z,5.80
2018-11-25T12:32:24.653Z,5.80
2018-11-25T12:34:53.551Z,5.80
2018-11-25T12:37:22.119Z,5.80
2018-11-25T12:39:50.682Z,5.80
2018-11-25T12:42:19.546Z,5.80
2018-11-25T12:44:48.219Z,5.70
2018-11-25T12:47:16.697Z,5.70
2018-11-25T12:49:45.198Z,5.70
2018-11-25T12:52:13.891Z,5.70
2018-11-25T12:54:42.463Z,5.70
2018-11-25T12:57:11.065Z,5.70
2018-11-25T12:59:40.356Z,5.70
2018-11-25T13:02:09.099Z,5.70
2018-11-25T13:04:37.884Z,5.70
2018-11-25T13:07:07.283Z,5.70
2018-11-25T13:09:36.357Z,5.70
2018-11-25T13:12:05.276Z,5.60
2018-11-25T13:14:33.785Z,5.60
2018-11-25T13:17:02.360Z,5.50
2018-11-25T13:19:31.243Z,5.40
2018-11-25T13:22:00.657Z,5.40
2018-11-25T13:24:29.511Z,5.40
2018-11-25T13:26:58.067Z,5.30
2018-11-25T13:29:27.183Z,5.30
2018-11-25T13:31:56.115Z,5.30
2018-11-25T13:34:24.839Z,5.20
2018-11-25T13:36:53.947Z,5.30
2018-11-25T13:39:22.462Z,5.30
2018-11-25T13:41:51.269Z,5.30
2018-11-25T13:44:20.346Z,5.30
2018-11-25T13:46:49.456Z,5.20
2018-11-25T13:49:18.115Z,5.20
2018-11-25T13:51:46.842Z,5.20
2018-11-25T13:54:15.510Z,5.20
2018-11-25T13:56:44.002Z,5.10
2018-11-25T13:59:12.870Z,5.00
2018-11-25T14:01:42.115Z,5.00
2018-11-25T14:04:10.689Z,4.90
2018-11-25T14:06:39.757Z,4.90
2018-11-25T14:09:12.548Z,4.90
2018-11-25T14:11:41.478Z,4.90
2018-11-25T14:14:09.989Z,4.90
2018-11-25T14:16:38.768Z,5.00
2018-11-25T14:19:07.870Z,5.00
2018-11-25T14:21:37.885Z,5.00
2018-11-25T14:24:07.449Z,5.00
2018-11-25T14:26:38.955Z,5.00
2018-11-25T14:29:07.469Z,4.90
2018-11-25T14:31:36.424Z,5.00
2018-11-25T14:34:05.678Z,5.00
2018-11-25T14:36:36.128Z,5.00
2018-11-25T14:39:08.839Z,5.00
2018-11-25T14:41:38.061Z,4.90
2018-11-25T14:44:09.451Z,4.90
2018-11-25T14:46:39.315Z,4.90
2018-11-25T14:49:08.985Z,4.90
2018-11-25T14:51:39.357Z,4.90
2018-11-25T14:54:12.394Z,4.80
2018-11-25T14:56:41.893Z,4.80
2018-11-25T14:59:10.842Z,4.70
2018-11-25T15:01:40.734Z,4.70
2018-11-25T15:04:11.232Z,4.80
2018-11-25T15:06:41.460Z,4.80
2018-11-25T15:09:12.285Z,4.80
2018-11-25T15:11:42.373Z,4.80
2018-11-25T15:14:12.522Z,4.80
2018-11-25T15:16:42.866Z,4.80
2018-11-25T15:19:11.949Z,4.80
2018-11-25T15:21:44.417Z,4.80
2018-11-25T15:24:14.891Z,4.80
2018-11-25T15:26:44.960Z,4.80
2018-11-25T15:29:14.218Z,4.80
2018-11-25T15:31:43.698Z,4.80
2018-11-25T15:34:12.546Z,4.90
2018-11-25T15:36:41.144Z,4.90
2018-11-25T15:39:11.481Z,5.00
2018-11-25T15:41:40.023Z,5.00
2018-11-25T15:44:08.537Z,5.00
2018-11-25T15:46:37.740Z,5.00
2018-11-25T15:49:06.499Z,5.00
2018-11-25T15:51:35.302Z,5.00
2018-11-25T15:54:03.929Z,5.00
2018-11-25T15:56:32.650Z,4.90
2018-11-25T15:59:01.813Z,4.90
2018-11-25T16:01:30.341Z,5.00
2018-11-25T16:03:58.971Z,5.00
2018-11-25T16:06:31.523Z,5.00
2018-11-25T16:09:00.108Z,5.00
2018-11-25T16:18:13.249Z,5.00
2018-11-25T16:20:42.153Z,4.90
2018-11-25T16:23:11.453Z,4.90
2018-11-25T16:25:46.880Z,4.80
2018-11-25T16:28:20.301Z,4.80
2018-11-25T16:30:49.464Z,4.80
2018-11-25T16:33:19.082Z,4.80
2018-11-25T16:35:48.018Z,4.80
2018-11-25T16:38:17.439Z,4.80
2018-11-25T16:40:47.547Z,4.80
2018-11-25T16:43:16.454Z,4.80
2018-11-25T16:45:44.950Z,4.90
2018-11-25T16:48:13.441Z,4.90
2018-11-25T16:50:42.130Z,5.00
2018-11-25T16:53:10.846Z,5.00
2018-11-25T16:55:39.375Z,5.00
2018-11-25T16:58:08.134Z,5.00
2018-11-25T17:00:36.647Z,5.00
2018-11-25T17:03:05.455Z,5.00
2018-11-25T17:05:36.120Z,5.00
2018-11-25T17:08:11.952Z,5.00
2018-11-25T17:10:41.367Z,5.00
2018-11-25T17:13:09.856Z,5.00
2018-11-25T17:15:38.430Z,5.10
2018-11-25T17:18:06.944Z,5.10
2018-11-25T17:20:35.586Z,5.10
2018-11-25T17:23:04.101Z,5.10
2018-11-25T17:25:32.702Z,5.10
2018-11-25T17:28:01.235Z,5.00
2018-11-25T17:30:29.888Z,5.10
2018-11-25T17:32:58.639Z,5.10
2018-11-25T17:35:28.948Z,5.10
2018-11-25T17:37:57.587Z,5.10
2018-11-25T17:40:26.339Z,5.20
2018-11-25T17:42:54.841Z,5.10
2018-11-25T17:45:23.464Z,5.10
2018-11-25T17:47:52.208Z,5.10
2018-11-25T17:50:25.403Z,5.00
2018-11-25T17:52:54.148Z,4.90
2018-11-25T17:55:23.908Z,4.90
2018-11-25T17:57:52.469Z,4.80
2018-11-25T18:00:25.425Z,4.80
2018-11-25T18:02:54.130Z,4.80
2018-11-25T18:05:22.662Z,4.80
2018-11-25T18:07:51.299Z,4.80
2018-11-25T18:10:20.144Z,4.80
2018-11-25T18:12:48.722Z,4.80
2018-11-25T18:15:19.823Z,4.80
2018-11-25T18:17:53.804Z,4.80
2018-11-25T18:20:22.888Z,4.80
2018-11-25T18:22:51.422Z,4.80
2018-11-25T18:25:20.196Z,4.80
2018-11-25T18:27:48.670Z,4.90
2018-11-25T18:30:17.666Z,4.90
2018-11-25T18:32:46.632Z,4.90
2018-11-25T18:35:15.239Z,4.90
2018-11-25T18:37:44.107Z,4.90
2018-11-25T18:40:14.080Z,4.90
2018-11-25T18:42:43.506Z,4.90
2018-11-25T18:45:14.924Z,4.90
2018-11-25T18:47:45.141Z,4.90
2018-11-25T18:50:15.369Z,4.90
2018-11-25T18:52:45.921Z,4.90
2018-11-25T18:55:13.499Z,4.90
2018-11-25T18:57:43.083Z,4.90
2018-11-25T19:00:21.639Z,4.90
2018-11-25T19:02:50.336Z,4.90
2018-11-25T19:05:18.883Z,4.90
2018-11-25T19:07:47.600Z,4.90
2018-11-25T19:10:19.638Z,5.00
2018-11-25T19:12:48.410Z,5.00
2018-11-25T19:15:18.782Z,4.90
2018-11-25T19:17:47.991Z,4.90
2018-11-25T19:20:18.318Z,4.90
2018-11-25T19:22:46.982Z,5.00
2018-11-25T19:25:16.662Z,5.00
2018-11-25T19:27:46.163Z,5.00
2018-11-25T19:30:15.184Z,5.00
2018-11-25T19:32:44.974Z,5.00
2018-11-25T19:35:14.613Z,5.00
2018-11-25T19:37:43.929Z,5.00
2018-11-25T19:40:13.603Z,5.00
2018-11-25T19:42:42.239Z,5.00
2018-11-25T19:45:15.031Z,5.00
2018-11-25T19:47:43.517Z,5.00
2018-11-25T19:50:14.716Z,5.00
2018-11-25T19:52:43.298Z,5.00
2018-11-25T19:55:11.887Z,5.00
2018-11-25T19:57:40.859Z,5.00
2018-11-25T20:00:13.424Z,5.00
2018-11-25T20:02:43.309Z,5.00
2018-11-25T20:05:12.948Z,5.00
2018-11-25T20:07:42.185Z,5.00
2018-11-25T20:10:13.943Z,5.00
2018-11-25T20:12:44.318Z,5.00
2018-11-25T20:15:14.118Z,5.00
2018-11-25T20:17:42.964Z,5.00
2018-11-25T20:20:12.765Z,5.00
2018-11-25T20:22:41.597Z,5.00
2018-11-25T20:25:11.298Z,5.00
2018-11-25T20:27:43.142Z,5.10
2018-11-25T20:30:14.524Z,5.10
2018-11-25T20:32:48.478Z,5.10
2018-11-25T20:35:17.130Z,5.10
2018-11-25T20:37:51.080Z,5.10
2018-11-25T20:40:19.575Z,5.20
2018-11-25T20:42:48.089Z,5.20
2018-11-25T20:45:24.050Z,5.20
2018-11-25T20:47:52.615Z,5.10
2018-11-25T20:50:21.691Z,5.10
2018-11-25T20:52:55.499Z,5.10
2018-11-25T20:55:24.133Z,5.10
2018-11-25T20:57:52.904Z,5.00
2018-11-25T21:00:22.648Z,5.00
2018-11-25T21:02:51.212Z,5.00
2018-11-25T21:05:21.166Z,5.00
2018-11-25T21:07:50.110Z,5.00
2018-11-25T21:10:19.869Z,5.00
2018-11-25T21:12:49.974Z,5.00
2018-11-25T21:15:18.812Z,5.00
2018-11-25T21:17:47.329Z,5.00
2018-11-25T21:20:20.822Z,5.00
2018-11-25T21:22:49.389Z,5.00
2018-11-25T21:25:20.960Z,5.00
2018-11-25T21:27:49.840Z,5.00
2018-11-25T21:30:20.516Z,5.00
2018-11-25T21:32:50.376Z,5.00
2018-11-25T21:35:18.930Z,5.00
2018-11-25T21:37:47.428Z,5.00
2018-11-25T21:40:18.254Z,5.00
2018-11-25T21:42:46.800Z,5.00
2018-11-25T21:45:16.418Z,5.00
2018-11-25T21:47:45.456Z,5.00
2018-11-25T21:50:24.813Z,5.00
2018-11-25T21:52:53.436Z,5.00
2018-11-25T21:55:23.246Z,5.00
2018-11-25T21:57:53.292Z,4.90
2018-11-25T22:00:22.718Z,5.00
2018-11-25T22:02:51.454Z,5.00
2018-11-25T22:05:24.653Z,4.90
2018-11-25T22:07:48.607Z,4.90
2018-11-25T22:10:18.725Z,4.90
2018-11-25T22:12:47.988Z,5.00
2018-11-25T22:15:21.763Z,5.00
2018-11-25T22:17:50.680Z,4.90
2018-11-25T22:20:19.936Z,4.90
2018-11-25T22:22:48.435Z,5.00
2018-11-25T22:25:18.238Z,5.00
2018-11-25T22:27:46.939Z,5.00
2018-11-25T22:30:21.495Z,5.00
2018-11-25T22:32:50.003Z,5.00
2018-11-25T22:35:19.673Z,5.10
2018-11-25T22:37:48.267Z,5.10
2018-11-25T22:40:18.392Z,5.10
2018-11-25T22:42:47.930Z,5.10
2018-11-25T22:45:19.446Z,5.10
2018-11-25T22:47:48.144Z,5.10
2018-11-25T22:50:18.625Z,5.10
2018-11-25T22:52:47.889Z,5.10
2018-11-25T22:55:25.120Z,5.10
2018-11-25T22:57:53.966Z,5.10
2018-11-25T23:00:33.761Z,5.00
2018-11-25T23:03:02.475Z,5.00
2018-11-25T23:05:42.224Z,5.00
2018-11-25T23:08:10.835Z,5.00
2018-11-25T23:10:39.399Z,5.00
2018-11-25T23:13:07.894Z,5.00
2018-11-25T23:15:37.909Z,5.00
2018-11-25T23:18:06.429Z,5.10
2018-11-25T23:20:35.440Z,5.10
2018-11-25T23:23:04.134Z,5.10
2018-11-25T23:25:32.601Z,5.10
2018-11-25T23:28:01.192Z,5.00
2018-11-25T23:30:29.664Z,5.00
2018-11-25T23:32:58.135Z,5.00
2018-11-25T23:35:27.973Z,5.00
2018-11-25T23:37:56.494Z,5.00
2018-11-25T23:40:25.325Z,5.00
2018-11-25T23:42:53.853Z,5.00
2018-11-25T23:45:23.741Z,4.90
2018-11-25T23:47:52.719Z,4.90
2018-11-25T23:50:21.191Z,4.90
2018-11-25T23:52:50.563Z,4.90
2018-11-25T23:55:19.317Z,4.90
2018-11-25T23:57:47.885Z,5.00
